sensor_id;sensor_type;location;lat;lon;timestamp;P1;durP1;ratioP1;P2;durP2;ratioP2
55559;SDS011;41414;53.250;6.514;2022-10-31T00:00:44;77.30;;;23.40;;
55559;SDS011;41414;53.250;6.514;2022-10-31T00:03:10;116.90;;;23.98;;
55559;SDS011;41414;53.250;6.514;2022-10-31T00:05:40;132.77;;;23.48;;
55559;SDS011;41414;53.250;6.514;2022-10-31T00:08:06;45.35;;;18.10;;
55559;SDS011;41414;53.250;6.514;2022-10-31T00:10:32;43.92;;;20.65;;
55559;SDS011;41414;53.250;6.514;2022-10-31T00:12:58;38.00;;;19.13;;
55559;SDS011;41414;53.250;6.514;2022-10-31T00:15:24;43.05;;;21.05;;
55559;SDS011;41414;53.250;6.514;2022-10-31T00:17:50;39.05;;;20.38;;
55559;SDS011;41414;53.250;6.514;2022-10-31T00:20:17;36.22;;;19.35;;
55559;SDS011;41414;53.250;6.514;2022-10-31T00:22:43;38.15;;;20.67;;
55559;SDS011;41414;53.250;6.514;2022-10-31T00:25:09;39.65;;;22.17;;
55559;SDS011;41414;53.250;6.514;2022-10-31T00:27:35;47.13;;;23.83;;
55559;SDS011;41414;53.250;6.514;2022-10-31T00:30:01;38.15;;;22.33;;
55559;SDS011;41414;53.250;6.514;2022-10-31T00:32:28;48.80;;;24.25;;
55559;SDS011;41414;53.250;6.514;2022-10-31T00:34:55;42.35;;;24.05;;
55559;SDS011;41414;53.250;6.514;2022-10-31T00:37:21;44.75;;;23.08;;
55559;SDS011;41414;53.250;6.514;2022-10-31T00:39:47;42.28;;;23.33;;
55559;SDS011;41414;53.250;6.514;2022-10-31T00:42:14;40.38;;;25.50;;
55559;SDS011;41414;53.250;6.514;2022-10-31T00:44:41;42.25;;;23.88;;
55559;SDS011;41414;53.250;6.514;2022-10-31T00:47:07;41.47;;;23.33;;
55559;SDS011;41414;53.250;6.514;2022-10-31T00:49:33;40.92;;;23.27;;
55559;SDS011;41414;53.250;6.514;2022-10-31T00:51:59;46.42;;;24.63;;
55559;SDS011;41414;53.250;6.514;2022-10-31T00:54:25;42.83;;;22.73;;
55559;SDS011;41414;53.250;6.514;2022-10-31T00:56:51;45.97;;;24.67;;
55559;SDS011;41414;53.250;6.514;2022-10-31T00:59:17;46.80;;;26.55;;
55559;SDS011;41414;53.250;6.514;2022-10-31T01:01:44;47.28;;;26.02;;
55559;SDS011;41414;53.250;6.514;2022-10-31T01:04:10;49.17;;;27.88;;
55559;SDS011;41414;53.250;6.514;2022-10-31T01:06:36;52.85;;;29.55;;
55559;SDS011;41414;53.250;6.514;2022-10-31T01:09:02;59.83;;;31.85;;
55559;SDS011;41414;53.250;6.514;2022-10-31T01:11:28;54.15;;;30.80;;
55559;SDS011;41414;53.250;6.514;2022-10-31T01:13:54;56.67;;;30.30;;
55559;SDS011;41414;53.250;6.514;2022-10-31T01:16:22;51.92;;;29.35;;
55559;SDS011;41414;53.250;6.514;2022-10-31T01:18:48;48.17;;;30.38;;
55559;SDS011;41414;53.250;6.514;2022-10-31T01:21:16;52.95;;;31.50;;
55559;SDS011;41414;53.250;6.514;2022-10-31T01:23:43;51.88;;;30.67;;
55559;SDS011;41414;53.250;6.514;2022-10-31T01:26:13;52.97;;;30.48;;
55559;SDS011;41414;53.250;6.514;2022-10-31T01:28:46;58.17;;;30.95;;
55559;SDS011;41414;53.250;6.514;2022-10-31T01:31:13;50.40;;;26.88;;
55559;SDS011;41414;53.250;6.514;2022-10-31T01:33:39;51.20;;;27.88;;
55559;SDS011;41414;53.250;6.514;2022-10-31T01:36:13;48.03;;;26.08;;
55559;SDS011;41414;53.250;6.514;2022-10-31T01:38:39;47.97;;;27.05;;
55559;SDS011;41414;53.250;6.514;2022-10-31T01:41:06;52.42;;;27.33;;
55559;SDS011;41414;53.250;6.514;2022-10-31T01:46:09;40.88;;;25.40;;
55559;SDS011;41414;53.250;6.514;2022-10-31T01:48:35;44.63;;;26.13;;
55559;SDS011;41414;53.250;6.514;2022-10-31T01:51:01;40.63;;;24.50;;
55559;SDS011;41414;53.250;6.514;2022-10-31T01:53:30;52.22;;;25.88;;
55559;SDS011;41414;53.250;6.514;2022-10-31T01:55:56;45.47;;;26.20;;
55559;SDS011;41414;53.250;6.514;2022-10-31T01:58:24;41.60;;;24.35;;
55559;SDS011;41414;53.250;6.514;2022-10-31T02:00:51;41.80;;;24.00;;
55559;SDS011;41414;53.250;6.514;2022-10-31T02:03:18;41.50;;;23.85;;
55559;SDS011;41414;53.250;6.514;2022-10-31T02:05:45;43.40;;;24.42;;
55559;SDS011;41414;53.250;6.514;2022-10-31T02:08:14;42.13;;;23.30;;
55559;SDS011;41414;53.250;6.514;2022-10-31T02:10:42;45.38;;;24.38;;
55559;SDS011;41414;53.250;6.514;2022-10-31T02:13:09;43.35;;;25.13;;
55559;SDS011;41414;53.250;6.514;2022-10-31T02:15:37;44.28;;;24.13;;
55559;SDS011;41414;53.250;6.514;2022-10-31T02:18:04;42.42;;;23.45;;
55559;SDS011;41414;53.250;6.514;2022-10-31T02:26:06;41.08;;;22.63;;
55559;SDS011;41414;53.250;6.514;2022-10-31T02:33:49;39.78;;;22.35;;
55559;SDS011;41414;53.250;6.514;2022-10-31T02:36:25;36.67;;;23.73;;
55559;SDS011;41414;53.250;6.514;2022-10-31T02:44:30;44.95;;;25.85;;
55559;SDS011;41414;53.250;6.514;2022-10-31T02:47:01;38.97;;;24.45;;
55559;SDS011;41414;53.250;6.514;2022-10-31T02:49:38;43.28;;;26.90;;
55559;SDS011;41414;53.250;6.514;2022-10-31T02:52:13;45.00;;;25.77;;
55559;SDS011;41414;53.250;6.514;2022-10-31T02:54:40;50.70;;;27.17;;
55559;SDS011;41414;53.250;6.514;2022-10-31T02:57:06;40.10;;;25.25;;
55559;SDS011;41414;53.250;6.514;2022-10-31T02:59:33;46.70;;;26.40;;
55559;SDS011;41414;53.250;6.514;2022-10-31T03:02:04;40.75;;;24.92;;
55559;SDS011;41414;53.250;6.514;2022-10-31T03:04:37;46.72;;;26.52;;
55559;SDS011;41414;53.250;6.514;2022-10-31T03:09:41;50.42;;;26.08;;
55559;SDS011;41414;53.250;6.514;2022-10-31T03:14:41;45.63;;;25.67;;
55559;SDS011;41414;53.250;6.514;2022-10-31T03:17:08;44.88;;;25.10;;
55559;SDS011;41414;53.250;6.514;2022-10-31T03:19:38;46.08;;;25.52;;
55559;SDS011;41414;53.250;6.514;2022-10-31T03:22:15;45.63;;;24.67;;
55559;SDS011;41414;53.250;6.514;2022-10-31T03:24:42;51.55;;;26.30;;
55559;SDS011;41414;53.250;6.514;2022-10-31T03:27:09;48.17;;;26.48;;
55559;SDS011;41414;53.250;6.514;2022-10-31T03:29:36;46.25;;;25.50;;
55559;SDS011;41414;53.250;6.514;2022-10-31T03:32:06;47.17;;;26.15;;
55559;SDS011;41414;53.250;6.514;2022-10-31T03:34:33;41.33;;;25.40;;
55559;SDS011;41414;53.250;6.514;2022-10-31T03:37:01;44.20;;;24.88;;
55559;SDS011;41414;53.250;6.514;2022-10-31T03:39:29;38.65;;;22.83;;
55559;SDS011;41414;53.250;6.514;2022-10-31T03:42:06;35.47;;;22.27;;
55559;SDS011;41414;53.250;6.514;2022-10-31T03:44:33;40.85;;;24.15;;
55559;SDS011;41414;53.250;6.514;2022-10-31T03:47:01;39.75;;;24.92;;
55559;SDS011;41414;53.250;6.514;2022-10-31T03:49:28;42.40;;;25.42;;
55559;SDS011;41414;53.250;6.514;2022-10-31T03:51:56;40.28;;;25.50;;
55559;SDS011;41414;53.250;6.514;2022-10-31T03:54:24;47.75;;;26.67;;
55559;SDS011;41414;53.250;6.514;2022-10-31T03:56:53;44.70;;;25.55;;
55559;SDS011;41414;53.250;6.514;2022-10-31T03:59:23;48.95;;;27.30;;
55559;SDS011;41414;53.250;6.514;2022-10-31T04:01:51;42.50;;;25.55;;
55559;SDS011;41414;53.250;6.514;2022-10-31T04:04:19;42.28;;;25.08;;
55559;SDS011;41414;53.250;6.514;2022-10-31T04:06:45;44.20;;;25.77;;
55559;SDS011;41414;53.250;6.514;2022-10-31T04:09:13;42.42;;;25.38;;
55559;SDS011;41414;53.250;6.514;2022-10-31T04:11:42;50.35;;;25.35;;
55559;SDS011;41414;53.250;6.514;2022-10-31T04:14:10;38.95;;;23.75;;
55559;SDS011;41414;53.250;6.514;2022-10-31T04:16:38;39.60;;;24.08;;
55559;SDS011;41414;53.250;6.514;2022-10-31T04:19:05;39.90;;;23.80;;
55559;SDS011;41414;53.250;6.514;2022-10-31T04:21:31;43.72;;;23.70;;
55559;SDS011;41414;53.250;6.514;2022-10-31T04:23:57;42.50;;;24.27;;
55559;SDS011;41414;53.250;6.514;2022-10-31T04:26:23;36.42;;;23.20;;
55559;SDS011;41414;53.250;6.514;2022-10-31T04:28:49;40.08;;;25.27;;
55559;SDS011;41414;53.250;6.514;2022-10-31T04:31:16;46.80;;;25.83;;
55559;SDS011;41414;53.250;6.514;2022-10-31T04:33:42;42.65;;;26.15;;
55559;SDS011;41414;53.250;6.514;2022-10-31T04:36:08;46.97;;;24.38;;
55559;SDS011;41414;53.250;6.514;2022-10-31T04:38:34;43.25;;;25.80;;
55559;SDS011;41414;53.250;6.514;2022-10-31T04:41:00;39.17;;;23.48;;
55559;SDS011;41414;53.250;6.514;2022-10-31T04:43:27;43.45;;;24.17;;
55559;SDS011;41414;53.250;6.514;2022-10-31T04:45:53;45.10;;;23.92;;
55559;SDS011;41414;53.250;6.514;2022-10-31T04:48:19;47.45;;;26.80;;
55559;SDS011;41414;53.250;6.514;2022-10-31T04:50:45;44.10;;;24.48;;
55559;SDS011;41414;53.250;6.514;2022-10-31T04:53:11;43.80;;;24.48;;
55559;SDS011;41414;53.250;6.514;2022-10-31T04:55:37;43.50;;;24.50;;
55559;SDS011;41414;53.250;6.514;2022-10-31T04:58:03;40.38;;;25.25;;
55559;SDS011;41414;53.250;6.514;2022-10-31T05:00:30;43.65;;;24.77;;
55559;SDS011;41414;53.250;6.514;2022-10-31T05:02:56;35.60;;;23.35;;
55559;SDS011;41414;53.250;6.514;2022-10-31T05:05:24;39.47;;;23.77;;
55559;SDS011;41414;53.250;6.514;2022-10-31T05:07:51;43.92;;;25.75;;
55559;SDS011;41414;53.250;6.514;2022-10-31T05:10:18;42.58;;;25.85;;
55559;SDS011;41414;53.250;6.514;2022-10-31T05:12:46;48.33;;;26.88;;
55559;SDS011;41414;53.250;6.514;2022-10-31T05:15:13;41.95;;;26.80;;
55559;SDS011;41414;53.250;6.514;2022-10-31T05:17:39;37.83;;;24.58;;
55559;SDS011;41414;53.250;6.514;2022-10-31T05:20:05;45.00;;;25.55;;
55559;SDS011;41414;53.250;6.514;2022-10-31T05:22:32;47.83;;;27.42;;
55559;SDS011;41414;53.250;6.514;2022-10-31T05:24:58;45.80;;;27.23;;
55559;SDS011;41414;53.250;6.514;2022-10-31T05:27:24;47.17;;;27.75;;
55559;SDS011;41414;53.250;6.514;2022-10-31T05:29:51;48.05;;;27.58;;
55559;SDS011;41414;53.250;6.514;2022-10-31T05:32:17;47.92;;;28.85;;
55559;SDS011;41414;53.250;6.514;2022-10-31T05:34:43;47.65;;;26.48;;
55559;SDS011;41414;53.250;6.514;2022-10-31T05:37:09;43.83;;;26.08;;
55559;SDS011;41414;53.250;6.514;2022-10-31T05:39:35;43.78;;;25.25;;
55559;SDS011;41414;53.250;6.514;2022-10-31T05:42:01;42.45;;;26.15;;
55559;SDS011;41414;53.250;6.514;2022-10-31T05:44:28;43.10;;;27.10;;
55559;SDS011;41414;53.250;6.514;2022-10-31T05:46:54;53.33;;;29.40;;
55559;SDS011;41414;53.250;6.514;2022-10-31T05:49:20;53.72;;;30.98;;
55559;SDS011;41414;53.250;6.514;2022-10-31T05:51:47;45.45;;;26.77;;
55559;SDS011;41414;53.250;6.514;2022-10-31T05:54:14;41.75;;;25.30;;
55559;SDS011;41414;53.250;6.514;2022-10-31T05:56:40;54.85;;;29.63;;
55559;SDS011;41414;53.250;6.514;2022-10-31T05:59:06;50.03;;;29.70;;
55559;SDS011;41414;53.250;6.514;2022-10-31T06:01:32;45.60;;;27.73;;
55559;SDS011;41414;53.250;6.514;2022-10-31T06:03:58;48.03;;;27.58;;
55559;SDS011;41414;53.250;6.514;2022-10-31T06:06:24;45.60;;;28.38;;
55559;SDS011;41414;53.250;6.514;2022-10-31T06:08:51;52.28;;;29.20;;
55559;SDS011;41414;53.250;6.514;2022-10-31T06:11:17;51.67;;;28.63;;
55559;SDS011;41414;53.250;6.514;2022-10-31T06:13:43;46.22;;;28.08;;
55559;SDS011;41414;53.250;6.514;2022-10-31T06:16:10;47.20;;;28.67;;
55559;SDS011;41414;53.250;6.514;2022-10-31T06:18:36;44.63;;;27.58;;
55559;SDS011;41414;53.250;6.514;2022-10-31T06:21:02;45.42;;;27.55;;
55559;SDS011;41414;53.250;6.514;2022-10-31T06:23:28;53.00;;;29.50;;
55559;SDS011;41414;53.250;6.514;2022-10-31T06:25:54;46.53;;;28.67;;
55559;SDS011;41414;53.250;6.514;2022-10-31T06:28:20;58.55;;;30.38;;
55559;SDS011;41414;53.250;6.514;2022-10-31T06:30:47;55.05;;;30.30;;
55559;SDS011;41414;53.250;6.514;2022-10-31T06:33:13;49.05;;;28.73;;
55559;SDS011;41414;53.250;6.514;2022-10-31T06:35:44;47.88;;;29.75;;
55559;SDS011;41414;53.250;6.514;2022-10-31T06:38:10;57.60;;;31.63;;
55559;SDS011;41414;53.250;6.514;2022-10-31T06:40:36;52.80;;;30.30;;
55559;SDS011;41414;53.250;6.514;2022-10-31T06:43:02;54.53;;;30.25;;
55559;SDS011;41414;53.250;6.514;2022-10-31T06:45:28;50.08;;;28.17;;
55559;SDS011;41414;53.250;6.514;2022-10-31T06:47:55;47.67;;;28.40;;
55559;SDS011;41414;53.250;6.514;2022-10-31T06:50:22;52.28;;;31.35;;
55559;SDS011;41414;53.250;6.514;2022-10-31T06:52:50;52.90;;;31.50;;
55559;SDS011;41414;53.250;6.514;2022-10-31T06:55:16;54.65;;;31.13;;
55559;SDS011;41414;53.250;6.514;2022-10-31T06:57:48;48.88;;;30.75;;
55559;SDS011;41414;53.250;6.514;2022-10-31T07:00:15;44.60;;;29.20;;
55559;SDS011;41414;53.250;6.514;2022-10-31T07:02:41;45.15;;;29.27;;
55559;SDS011;41414;53.250;6.514;2022-10-31T07:05:07;51.05;;;31.83;;
55559;SDS011;41414;53.250;6.514;2022-10-31T07:07:33;46.83;;;28.95;;
55559;SDS011;41414;53.250;6.514;2022-10-31T07:09:59;48.95;;;30.40;;
55559;SDS011;41414;53.250;6.514;2022-10-31T07:12:26;44.22;;;27.13;;
55559;SDS011;41414;53.250;6.514;2022-10-31T07:14:52;44.88;;;29.60;;
55559;SDS011;41414;53.250;6.514;2022-10-31T07:17:18;42.58;;;29.13;;
55559;SDS011;41414;53.250;6.514;2022-10-31T07:19:44;47.47;;;29.50;;
55559;SDS011;41414;53.250;6.514;2022-10-31T07:22:10;42.30;;;28.45;;
55559;SDS011;41414;53.250;6.514;2022-10-31T07:24:36;43.85;;;28.13;;
55559;SDS011;41414;53.250;6.514;2022-10-31T07:27:02;42.20;;;27.48;;
55559;SDS011;41414;53.250;6.514;2022-10-31T07:29:29;38.22;;;27.23;;
55559;SDS011;41414;53.250;6.514;2022-10-31T07:31:55;48.95;;;29.88;;
55559;SDS011;41414;53.250;6.514;2022-10-31T07:34:21;43.25;;;28.63;;
55559;SDS011;41414;53.250;6.514;2022-10-31T07:36:47;43.50;;;28.02;;
55559;SDS011;41414;53.250;6.514;2022-10-31T07:39:13;39.75;;;27.27;;
55559;SDS011;41414;53.250;6.514;2022-10-31T07:41:39;45.08;;;29.67;;
55559;SDS011;41414;53.250;6.514;2022-10-31T07:44:06;41.80;;;27.77;;
55559;SDS011;41414;53.250;6.514;2022-10-31T07:46:32;45.30;;;27.60;;
55559;SDS011;41414;53.250;6.514;2022-10-31T07:48:58;43.03;;;30.48;;
55559;SDS011;41414;53.250;6.514;2022-10-31T07:51:24;46.03;;;29.75;;
55559;SDS011;41414;53.250;6.514;2022-10-31T07:53:51;38.50;;;25.65;;
55559;SDS011;41414;53.250;6.514;2022-10-31T07:56:17;38.70;;;27.05;;
55559;SDS011;41414;53.250;6.514;2022-10-31T07:58:43;37.78;;;26.55;;
55559;SDS011;41414;53.250;6.514;2022-10-31T08:01:10;39.17;;;28.52;;
55559;SDS011;41414;53.250;6.514;2022-10-31T08:03:36;42.55;;;28.42;;
55559;SDS011;41414;53.250;6.514;2022-10-31T08:06:02;39.85;;;27.70;;
55559;SDS011;41414;53.250;6.514;2022-10-31T08:08:28;40.65;;;27.85;;
55559;SDS011;41414;53.250;6.514;2022-10-31T08:10:54;35.10;;;25.27;;
55559;SDS011;41414;53.250;6.514;2022-10-31T08:13:20;43.75;;;25.77;;
55559;SDS011;41414;53.250;6.514;2022-10-31T08:15:47;38.03;;;25.45;;
55559;SDS011;41414;53.250;6.514;2022-10-31T08:18:15;36.28;;;24.65;;
55559;SDS011;41414;53.250;6.514;2022-10-31T08:20:42;33.47;;;22.92;;
55559;SDS011;41414;53.250;6.514;2022-10-31T08:23:09;30.10;;;21.08;;
55559;SDS011;41414;53.250;6.514;2022-10-31T08:25:35;36.75;;;23.45;;
55559;SDS011;41414;53.250;6.514;2022-10-31T08:28:02;35.70;;;22.80;;
55559;SDS011;41414;53.250;6.514;2022-10-31T08:30:29;37.78;;;22.60;;
55559;SDS011;41414;53.250;6.514;2022-10-31T08:32:57;34.72;;;22.05;;
55559;SDS011;41414;53.250;6.514;2022-10-31T08:35:24;34.53;;;22.92;;
55559;SDS011;41414;53.250;6.514;2022-10-31T08:37:52;28.30;;;21.50;;
55559;SDS011;41414;53.250;6.514;2022-10-31T08:40:18;29.05;;;21.88;;
55559;SDS011;41414;53.250;6.514;2022-10-31T08:42:44;33.20;;;21.88;;
55559;SDS011;41414;53.250;6.514;2022-10-31T08:45:11;31.95;;;21.75;;
55559;SDS011;41414;53.250;6.514;2022-10-31T08:47:37;32.72;;;22.35;;
55559;SDS011;41414;53.250;6.514;2022-10-31T08:50:03;35.50;;;21.80;;
55559;SDS011;41414;53.250;6.514;2022-10-31T08:52:29;27.77;;;19.98;;
55559;SDS011;41414;53.250;6.514;2022-10-31T08:54:56;32.17;;;20.63;;
55559;SDS011;41414;53.250;6.514;2022-10-31T08:57:22;33.03;;;21.45;;
55559;SDS011;41414;53.250;6.514;2022-10-31T08:59:48;28.40;;;19.83;;
55559;SDS011;41414;53.250;6.514;2022-10-31T09:02:14;31.58;;;21.80;;
55559;SDS011;41414;53.250;6.514;2022-10-31T09:04:40;29.50;;;19.50;;
55559;SDS011;41414;53.250;6.514;2022-10-31T09:07:06;27.05;;;19.55;;
55559;SDS011;41414;53.250;6.514;2022-10-31T09:09:32;24.92;;;19.20;;
55559;SDS011;41414;53.250;6.514;2022-10-31T09:11:59;29.20;;;19.08;;
55559;SDS011;41414;53.250;6.514;2022-10-31T09:14:25;28.08;;;20.20;;
55559;SDS011;41414;53.250;6.514;2022-10-31T09:16:51;28.10;;;18.63;;
55559;SDS011;41414;53.250;6.514;2022-10-31T09:19:18;25.73;;;17.75;;
55559;SDS011;41414;53.250;6.514;2022-10-31T09:21:44;24.30;;;17.23;;
55559;SDS011;41414;53.250;6.514;2022-10-31T09:24:10;25.25;;;16.17;;
55559;SDS011;41414;53.250;6.514;2022-10-31T09:26:36;25.33;;;16.90;;
55559;SDS011;41414;53.250;6.514;2022-10-31T09:29:02;22.08;;;15.10;;
55559;SDS011;41414;53.250;6.514;2022-10-31T09:31:29;20.52;;;14.73;;
55559;SDS011;41414;53.250;6.514;2022-10-31T09:33:55;18.17;;;12.10;;
55559;SDS011;41414;53.250;6.514;2022-10-31T09:36:21;19.55;;;13.38;;
55559;SDS011;41414;53.250;6.514;2022-10-31T09:38:48;18.55;;;13.50;;
55559;SDS011;41414;53.250;6.514;2022-10-31T09:41:19;16.65;;;12.35;;
55559;SDS011;41414;53.250;6.514;2022-10-31T09:43:56;18.20;;;12.88;;
55559;SDS011;41414;53.250;6.514;2022-10-31T09:46:37;17.20;;;11.95;;
55559;SDS011;41414;53.250;6.514;2022-10-31T09:49:17;20.90;;;13.35;;
55559;SDS011;41414;53.250;6.514;2022-10-31T09:51:49;22.00;;;13.13;;
55559;SDS011;41414;53.250;6.514;2022-10-31T09:54:19;21.25;;;12.23;;
55559;SDS011;41414;53.250;6.514;2022-10-31T09:56:46;16.77;;;11.05;;
55559;SDS011;41414;53.250;6.514;2022-10-31T09:59:31;16.15;;;10.57;;
55559;SDS011;41414;53.250;6.514;2022-10-31T10:01:59;14.77;;;9.68;;
55559;SDS011;41414;53.250;6.514;2022-10-31T10:04:29;16.05;;;10.63;;
55559;SDS011;41414;53.250;6.514;2022-10-31T10:06:56;16.77;;;10.73;;
55559;SDS011;41414;53.250;6.514;2022-10-31T10:09:24;13.15;;;9.20;;
55559;SDS011;41414;53.250;6.514;2022-10-31T10:22:02;12.77;;;9.10;;
55559;SDS011;41414;53.250;6.514;2022-10-31T10:24:33;14.82;;;9.43;;
55559;SDS011;41414;53.250;6.514;2022-10-31T10:29:36;12.40;;;8.60;;
55559;SDS011;41414;53.250;6.514;2022-10-31T10:32:10;11.50;;;9.23;;
55559;SDS011;41414;53.250;6.514;2022-10-31T10:34:45;14.65;;;9.30;;
55559;SDS011;41414;53.250;6.514;2022-10-31T10:39:40;16.25;;;9.85;;
55559;SDS011;41414;53.250;6.514;2022-10-31T10:42:09;11.10;;;8.75;;
55559;SDS011;41414;53.250;6.514;2022-10-31T10:44:55;11.32;;;9.38;;
55559;SDS011;41414;53.250;6.514;2022-10-31T10:47:41;15.32;;;9.55;;
55559;SDS011;41414;53.250;6.514;2022-10-31T10:50:17;11.95;;;9.27;;
55559;SDS011;41414;53.250;6.514;2022-10-31T10:57:58;14.68;;;10.35;;
55559;SDS011;41414;53.250;6.514;2022-10-31T11:00:27;12.98;;;10.25;;
55559;SDS011;41414;53.250;6.514;2022-10-31T11:02:55;15.13;;;10.88;;
55559;SDS011;41414;53.250;6.514;2022-10-31T11:05:23;14.40;;;11.20;;
55559;SDS011;41414;53.250;6.514;2022-10-31T11:07:50;17.88;;;11.00;;
55559;SDS011;41414;53.250;6.514;2022-10-31T11:10:16;18.02;;;11.68;;
55559;SDS011;41414;53.250;6.514;2022-10-31T11:12:43;15.55;;;11.48;;
55559;SDS011;41414;53.250;6.514;2022-10-31T11:15:23;18.13;;;11.82;;
55559;SDS011;41414;53.250;6.514;2022-10-31T11:17:52;14.82;;;11.73;;
55559;SDS011;41414;53.250;6.514;2022-10-31T11:22:46;14.40;;;11.57;;
55559;SDS011;41414;53.250;6.514;2022-10-31T11:27:58;15.43;;;10.65;;
55559;SDS011;41414;53.250;6.514;2022-10-31T11:30:24;12.57;;;10.18;;
55559;SDS011;41414;53.250;6.514;2022-10-31T11:32:50;16.00;;;10.68;;
55559;SDS011;41414;53.250;6.514;2022-10-31T11:35:18;17.02;;;12.07;;
55559;SDS011;41414;53.250;6.514;2022-10-31T11:37:46;16.92;;;11.57;;
55559;SDS011;41414;53.250;6.514;2022-10-31T11:40:18;18.27;;;12.18;;
55559;SDS011;41414;53.250;6.514;2022-10-31T11:42:45;15.68;;;9.63;;
55559;SDS011;41414;53.250;6.514;2022-10-31T11:45:17;15.05;;;10.32;;
55559;SDS011;41414;53.250;6.514;2022-10-31T11:47:46;16.85;;;10.60;;
55559;SDS011;41414;53.250;6.514;2022-10-31T11:50:18;16.50;;;10.35;;
55559;SDS011;41414;53.250;6.514;2022-10-31T11:52:45;16.80;;;11.15;;
55559;SDS011;41414;53.250;6.514;2022-10-31T11:57:42;14.90;;;9.98;;
55559;SDS011;41414;53.250;6.514;2022-10-31T12:02:48;13.52;;;8.45;;
55559;SDS011;41414;53.250;6.514;2022-10-31T12:07:45;15.38;;;8.43;;
55559;SDS011;41414;53.250;6.514;2022-10-31T12:10:11;11.98;;;6.03;;
55559;SDS011;41414;53.250;6.514;2022-10-31T12:15:15;6.93;;;4.25;;
55559;SDS011;41414;53.250;6.514;2022-10-31T12:17:45;9.35;;;4.60;;
55559;SDS011;41414;53.250;6.514;2022-10-31T12:20:26;10.07;;;4.68;;
55559;SDS011;41414;53.250;6.514;2022-10-31T12:22:58;10.57;;;5.00;;
55559;SDS011;41414;53.250;6.514;2022-10-31T12:30:21;10.60;;;4.40;;
55559;SDS011;41414;53.250;6.514;2022-10-31T12:32:54;7.57;;;4.32;;
55559;SDS011;41414;53.250;6.514;2022-10-31T12:40:26;9.75;;;4.32;;
55559;SDS011;41414;53.250;6.514;2022-10-31T12:45:26;10.75;;;5.00;;
55559;SDS011;41414;53.250;6.514;2022-10-31T12:48:00;11.57;;;6.38;;
55559;SDS011;41414;53.250;6.514;2022-10-31T12:50:31;10.85;;;6.00;;
55559;SDS011;41414;53.250;6.514;2022-10-31T12:53:03;12.80;;;6.10;;
55559;SDS011;41414;53.250;6.514;2022-10-31T12:55:38;10.48;;;5.68;;
55559;SDS011;41414;53.250;6.514;2022-10-31T12:58:09;13.00;;;6.20;;
55559;SDS011;41414;53.250;6.514;2022-10-31T13:00:37;12.32;;;6.47;;
55559;SDS011;41414;53.250;6.514;2022-10-31T13:03:17;9.93;;;5.60;;
55559;SDS011;41414;53.250;6.514;2022-10-31T13:05:46;12.15;;;5.85;;
55559;SDS011;41414;53.250;6.514;2022-10-31T13:08:21;12.88;;;5.07;;
55559;SDS011;41414;53.250;6.514;2022-10-31T13:10:50;9.93;;;5.57;;
55559;SDS011;41414;53.250;6.514;2022-10-31T13:13:19;9.70;;;4.90;;
55559;SDS011;41414;53.250;6.514;2022-10-31T13:15:48;11.27;;;4.60;;
55559;SDS011;41414;53.250;6.514;2022-10-31T13:18:21;9.20;;;4.70;;
55559;SDS011;41414;53.250;6.514;2022-10-31T13:20:48;8.75;;;4.43;;
55559;SDS011;41414;53.250;6.514;2022-10-31T13:23:20;7.57;;;4.57;;
55559;SDS011;41414;53.250;6.514;2022-10-31T13:25:49;11.50;;;4.50;;
55559;SDS011;41414;53.250;6.514;2022-10-31T13:30:47;9.45;;;5.13;;
55559;SDS011;41414;53.250;6.514;2022-10-31T13:33:15;12.00;;;5.95;;
55559;SDS011;41414;53.250;6.514;2022-10-31T13:40:49;11.05;;;4.63;;
55559;SDS011;41414;53.250;6.514;2022-10-31T13:45:50;16.42;;;5.43;;
55559;SDS011;41414;53.250;6.514;2022-10-31T13:48:18;9.90;;;4.82;;
55559;SDS011;41414;53.250;6.514;2022-10-31T13:50:56;12.70;;;4.75;;
55559;SDS011;41414;53.250;6.514;2022-10-31T13:53:22;9.43;;;4.78;;
55559;SDS011;41414;53.250;6.514;2022-10-31T13:56:03;8.25;;;4.60;;
55559;SDS011;41414;53.250;6.514;2022-10-31T13:58:30;13.82;;;4.35;;
55559;SDS011;41414;53.250;6.514;2022-10-31T14:03:34;13.25;;;5.30;;
55559;SDS011;41414;53.250;6.514;2022-10-31T14:06:01;12.95;;;4.05;;
55559;SDS011;41414;53.250;6.514;2022-10-31T14:08:27;12.10;;;4.15;;
55559;SDS011;41414;53.250;6.514;2022-10-31T14:10:55;13.35;;;4.15;;
55559;SDS011;41414;53.250;6.514;2022-10-31T14:13:22;14.93;;;4.22;;
55559;SDS011;41414;53.250;6.514;2022-10-31T14:15:57;9.25;;;4.20;;
55559;SDS011;41414;53.250;6.514;2022-10-31T14:18:32;8.93;;;4.25;;
55559;SDS011;41414;53.250;6.514;2022-10-31T14:20:59;11.88;;;4.95;;
55559;SDS011;41414;53.250;6.514;2022-10-31T14:23:34;10.75;;;4.95;;
55559;SDS011;41414;53.250;6.514;2022-10-31T14:28:42;9.82;;;5.63;;
55559;SDS011;41414;53.250;6.514;2022-10-31T14:33:53;12.25;;;5.50;;
55559;SDS011;41414;53.250;6.514;2022-10-31T14:36:24;14.07;;;6.35;;
55559;SDS011;41414;53.250;6.514;2022-10-31T14:41:24;16.15;;;6.20;;
55559;SDS011;41414;53.250;6.514;2022-10-31T14:49:26;12.38;;;4.63;;
55559;SDS011;41414;53.250;6.514;2022-10-31T14:51:57;10.63;;;5.47;;
55559;SDS011;41414;53.250;6.514;2022-10-31T14:54:26;10.18;;;5.93;;
55559;SDS011;41414;53.250;6.514;2022-10-31T14:56:53;12.90;;;5.40;;
55559;SDS011;41414;53.250;6.514;2022-10-31T14:59:23;10.65;;;5.28;;
55559;SDS011;41414;53.250;6.514;2022-10-31T15:01:53;16.17;;;6.47;;
55559;SDS011;41414;53.250;6.514;2022-10-31T15:04:27;14.88;;;6.95;;
55559;SDS011;41414;53.250;6.514;2022-10-31T15:06:59;11.40;;;5.85;;
55559;SDS011;41414;53.250;6.514;2022-10-31T15:09:27;11.07;;;5.78;;
55559;SDS011;41414;53.250;6.514;2022-10-31T15:11:54;11.10;;;5.90;;
55559;SDS011;41414;53.250;6.514;2022-10-31T15:14:22;12.27;;;5.40;;
55559;SDS011;41414;53.250;6.514;2022-10-31T15:16:49;12.52;;;4.78;;
55559;SDS011;41414;53.250;6.514;2022-10-31T15:19:18;12.00;;;5.63;;
55559;SDS011;41414;53.250;6.514;2022-10-31T15:21:46;10.35;;;4.75;;
55559;SDS011;41414;53.250;6.514;2022-10-31T15:24:13;12.30;;;6.32;;
55559;SDS011;41414;53.250;6.514;2022-10-31T15:26:44;9.65;;;5.43;;
55559;SDS011;41414;53.250;6.514;2022-10-31T15:29:12;12.63;;;6.13;;
55559;SDS011;41414;53.250;6.514;2022-10-31T15:31:38;10.13;;;6.28;;
55559;SDS011;41414;53.250;6.514;2022-10-31T15:34:06;12.30;;;6.40;;
55559;SDS011;41414;53.250;6.514;2022-10-31T15:36:33;15.63;;;6.65;;
55559;SDS011;41414;53.250;6.514;2022-10-31T15:38:59;12.57;;;7.13;;
55559;SDS011;41414;53.250;6.514;2022-10-31T15:43:57;19.55;;;8.80;;
55559;SDS011;41414;53.250;6.514;2022-10-31T15:46:25;14.70;;;8.75;;
55559;SDS011;41414;53.250;6.514;2022-10-31T15:48:52;16.83;;;9.52;;
55559;SDS011;41414;53.250;6.514;2022-10-31T15:51:25;18.25;;;9.63;;
55559;SDS011;41414;53.250;6.514;2022-10-31T15:53:52;18.48;;;10.00;;
55559;SDS011;41414;53.250;6.514;2022-10-31T15:56:20;16.55;;;10.10;;
55559;SDS011;41414;53.250;6.514;2022-10-31T15:58:48;17.27;;;10.05;;
55559;SDS011;41414;53.250;6.514;2022-10-31T16:01:21;16.55;;;9.90;;
55559;SDS011;41414;53.250;6.514;2022-10-31T16:03:58;17.90;;;9.98;;
55559;SDS011;41414;53.250;6.514;2022-10-31T16:06:24;21.95;;;11.23;;
55559;SDS011;41414;53.250;6.514;2022-10-31T16:08:51;21.45;;;10.48;;
55559;SDS011;41414;53.250;6.514;2022-10-31T16:11:21;18.17;;;10.25;;